sensor_id;sensor_type;location;lat;lon;timestamp;P1;durP1;ratioP1;P2;durP2;ratioP2
19879;SDS011;10102;50.828;4.416;2023-06-14T00:00:39;10.25;;;5.95;;
19879;SDS011;10102;50.828;4.416;2023-06-14T00:03:09;10.63;;;6.03;;
19879;SDS011;10102;50.828;4.416;2023-06-14T00:05:36;11.63;;;6.22;;
19879;SDS011;10102;50.828;4.416;2023-06-14T00:08:06;10.27;;;5.78;;
19879;SDS011;10102;50.828;4.416;2023-06-14T00:10:33;12.82;;;5.93;;
19879;SDS011;10102;50.828;4.416;2023-06-14T00:13:03;13.18;;;6.20;;
19879;SDS011;10102;50.828;4.416;2023-06-14T00:15:30;7.75;;;5.50;;
19879;SDS011;10102;50.828;4.416;2023-06-14T00:17:56;10.05;;;6.15;;
19879;SDS011;10102;50.828;4.416;2023-06-14T00:20:26;10.00;;;5.97;;
19879;SDS011;10102;50.828;4.416;2023-06-14T00:22:52;14.15;;;5.88;;
19879;SDS011;10102;50.828;4.416;2023-06-14T00:25:20;8.05;;;5.95;;
19879;SDS011;10102;50.828;4.416;2023-06-14T00:27:47;11.30;;;6.22;;
19879;SDS011;10102;50.828;4.416;2023-06-14T00:30:13;10.18;;;6.07;;
19879;SDS011;10102;50.828;4.416;2023-06-14T00:32:39;7.30;;;6.10;;
19879;SDS011;10102;50.828;4.416;2023-06-14T00:35:05;13.95;;;5.95;;
19879;SDS011;10102;50.828;4.416;2023-06-14T00:37:32;9.65;;;5.60;;
19879;SDS011;10102;50.828;4.416;2023-06-14T00:39:58;10.90;;;6.07;;
19879;SDS011;10102;50.828;4.416;2023-06-14T00:42:27;9.25;;;5.38;;
19879;SDS011;10102;50.828;4.416;2023-06-14T00:44:53;11.15;;;6.13;;
19879;SDS011;10102;50.828;4.416;2023-06-14T00:47:20;14.75;;;6.60;;
19879;SDS011;10102;50.828;4.416;2023-06-14T00:49:46;13.55;;;6.25;;
19879;SDS011;10102;50.828;4.416;2023-06-14T00:52:15;11.02;;;6.38;;
19879;SDS011;10102;50.828;4.416;2023-06-14T00:54:42;10.05;;;6.30;;
19879;SDS011;10102;50.828;4.416;2023-06-14T00:57:09;13.98;;;6.30;;
19879;SDS011;10102;50.828;4.416;2023-06-14T00:59:42;8.48;;;5.93;;
19879;SDS011;10102;50.828;4.416;2023-06-14T01:02:09;9.75;;;5.88;;
19879;SDS011;10102;50.828;4.416;2023-06-14T01:04:36;12.70;;;6.22;;
19879;SDS011;10102;50.828;4.416;2023-06-14T01:07:12;12.25;;;5.78;;
19879;SDS011;10102;50.828;4.416;2023-06-14T01:10:16;7.82;;;5.30;;
19879;SDS011;10102;50.828;4.416;2023-06-14T01:13:11;7.90;;;6.63;;
19879;SDS011;10102;50.828;4.416;2023-06-14T01:15:43;12.30;;;5.95;;
19879;SDS011;10102;50.828;4.416;2023-06-14T01:18:10;14.80;;;6.20;;
19879;SDS011;10102;50.828;4.416;2023-06-14T01:20:42;14.43;;;6.50;;
19879;SDS011;10102;50.828;4.416;2023-06-14T01:23:10;14.18;;;6.60;;
19879;SDS011;10102;50.828;4.416;2023-06-14T01:25:40;8.10;;;5.90;;
19879;SDS011;10102;50.828;4.416;2023-06-14T01:28:09;14.25;;;6.35;;
19879;SDS011;10102;50.828;4.416;2023-06-14T01:30:38;9.68;;;6.20;;
19879;SDS011;10102;50.828;4.416;2023-06-14T01:33:07;15.10;;;6.72;;
19879;SDS011;10102;50.828;4.416;2023-06-14T01:35:34;15.05;;;5.72;;
19879;SDS011;10102;50.828;4.416;2023-06-14T01:38:00;16.42;;;6.20;;
19879;SDS011;10102;50.828;4.416;2023-06-14T01:40:28;8.38;;;6.07;;
19879;SDS011;10102;50.828;4.416;2023-06-14T01:42:56;12.82;;;6.95;;
19879;SDS011;10102;50.828;4.416;2023-06-14T01:45:22;10.30;;;6.32;;
19879;SDS011;10102;50.828;4.416;2023-06-14T01:47:49;8.82;;;6.45;;
19879;SDS011;10102;50.828;4.416;2023-06-14T01:50:15;13.02;;;6.30;;
19879;SDS011;10102;50.828;4.416;2023-06-14T01:52:41;10.00;;;6.50;;
19879;SDS011;10102;50.828;4.416;2023-06-14T01:55:07;9.93;;;6.93;;
19879;SDS011;10102;50.828;4.416;2023-06-14T01:57:34;11.55;;;6.32;;
19879;SDS011;10102;50.828;4.416;2023-06-14T02:00:01;11.20;;;6.32;;
19879;SDS011;10102;50.828;4.416;2023-06-14T02:02:28;7.93;;;6.45;;
19879;SDS011;10102;50.828;4.416;2023-06-14T02:04:54;14.07;;;6.50;;
19879;SDS011;10102;50.828;4.416;2023-06-14T02:07:22;7.50;;;6.13;;
19879;SDS011;10102;50.828;4.416;2023-06-14T02:09:48;7.40;;;6.32;;
19879;SDS011;10102;50.828;4.416;2023-06-14T02:12:14;17.55;;;7.18;;
19879;SDS011;10102;50.828;4.416;2023-06-14T02:14:39;9.25;;;6.30;;
19879;SDS011;10102;50.828;4.416;2023-06-14T02:17:05;9.45;;;6.65;;
19879;SDS011;10102;50.828;4.416;2023-06-14T02:19:31;9.35;;;7.03;;
19879;SDS011;10102;50.828;4.416;2023-06-14T02:21:57;11.30;;;6.68;;
19879;SDS011;10102;50.828;4.416;2023-06-14T02:24:23;8.73;;;6.65;;
19879;SDS011;10102;50.828;4.416;2023-06-14T02:26:49;15.93;;;7.53;;
19879;SDS011;10102;50.828;4.416;2023-06-14T02:29:15;10.57;;;7.35;;
19879;SDS011;10102;50.828;4.416;2023-06-14T02:31:41;11.70;;;6.22;;
19879;SDS011;10102;50.828;4.416;2023-06-14T02:34:07;15.05;;;7.07;;
19879;SDS011;10102;50.828;4.416;2023-06-14T02:36:35;12.20;;;7.22;;
19879;SDS011;10102;50.828;4.416;2023-06-14T02:39:07;13.88;;;7.05;;
19879;SDS011;10102;50.828;4.416;2023-06-14T02:41:36;11.48;;;7.18;;
19879;SDS011;10102;50.828;4.416;2023-06-14T02:44:02;14.18;;;7.65;;
19879;SDS011;10102;50.828;4.416;2023-06-14T02:46:27;13.13;;;7.20;;
19879;SDS011;10102;50.828;4.416;2023-06-14T02:48:53;15.98;;;7.50;;
19879;SDS011;10102;50.828;4.416;2023-06-14T02:51:19;9.00;;;6.72;;
19879;SDS011;10102;50.828;4.416;2023-06-14T02:53:45;11.90;;;6.65;;
19879;SDS011;10102;50.828;4.416;2023-06-14T02:56:10;12.18;;;7.22;;
19879;SDS011;10102;50.828;4.416;2023-06-14T02:58:37;11.73;;;7.30;;
19879;SDS011;10102;50.828;4.416;2023-06-14T03:01:04;11.60;;;7.18;;
19879;SDS011;10102;50.828;4.416;2023-06-14T03:03:32;10.05;;;6.80;;
19879;SDS011;10102;50.828;4.416;2023-06-14T03:05:58;13.25;;;7.05;;
19879;SDS011;10102;50.828;4.416;2023-06-14T03:08:29;11.63;;;7.30;;
19879;SDS011;10102;50.828;4.416;2023-06-14T03:10:54;16.20;;;7.72;;
19879;SDS011;10102;50.828;4.416;2023-06-14T03:13:22;12.73;;;7.50;;
19879;SDS011;10102;50.828;4.416;2023-06-14T03:15:48;12.85;;;7.35;;
19879;SDS011;10102;50.828;4.416;2023-06-14T03:18:17;15.30;;;7.80;;
19879;SDS011;10102;50.828;4.416;2023-06-14T03:20:43;13.02;;;7.65;;
19879;SDS011;10102;50.828;4.416;2023-06-14T03:23:10;9.52;;;7.03;;
19879;SDS011;10102;50.828;4.416;2023-06-14T03:25:37;15.05;;;8.20;;
19879;SDS011;10102;50.828;4.416;2023-06-14T03:28:05;10.55;;;7.43;;
19879;SDS011;10102;50.828;4.416;2023-06-14T03:30:31;14.43;;;7.40;;
19879;SDS011;10102;50.828;4.416;2023-06-14T03:32:57;17.33;;;7.90;;
19879;SDS011;10102;50.828;4.416;2023-06-14T03:35:26;13.68;;;7.30;;
19879;SDS011;10102;50.828;4.416;2023-06-14T03:37:52;13.02;;;7.55;;
19879;SDS011;10102;50.828;4.416;2023-06-14T03:40:18;13.82;;;7.80;;
19879;SDS011;10102;50.828;4.416;2023-06-14T03:42:45;13.88;;;7.65;;
19879;SDS011;10102;50.828;4.416;2023-06-14T03:45:11;12.05;;;7.20;;
19879;SDS011;10102;50.828;4.416;2023-06-14T03:47:36;12.90;;;7.28;;
19879;SDS011;10102;50.828;4.416;2023-06-14T03:50:02;13.95;;;8.13;;
19879;SDS011;10102;50.828;4.416;2023-06-14T03:52:29;15.95;;;7.80;;
19879;SDS011;10102;50.828;4.416;2023-06-14T03:55:12;16.20;;;7.40;;
19879;SDS011;10102;50.828;4.416;2023-06-14T03:57:57;10.50;;;7.53;;
19879;SDS011;10102;50.828;4.416;2023-06-14T04:00:49;16.25;;;7.90;;
19879;SDS011;10102;50.828;4.416;2023-06-14T04:03:15;10.95;;;7.75;;
19879;SDS011;10102;50.828;4.416;2023-06-14T04:05:59;10.38;;;7.57;;
19879;SDS011;10102;50.828;4.416;2023-06-14T04:08:25;11.50;;;7.90;;
19879;SDS011;10102;50.828;4.416;2023-06-14T04:10:51;14.82;;;7.80;;
19879;SDS011;10102;50.828;4.416;2023-06-14T04:13:16;17.65;;;7.97;;
19879;SDS011;10102;50.828;4.416;2023-06-14T04:15:42;10.63;;;7.68;;
19879;SDS011;10102;50.828;4.416;2023-06-14T04:18:10;10.55;;;7.28;;
19879;SDS011;10102;50.828;4.416;2023-06-14T04:20:37;13.90;;;8.38;;
19879;SDS011;10102;50.828;4.416;2023-06-14T04:23:15;14.90;;;7.75;;
19879;SDS011;10102;50.828;4.416;2023-06-14T04:25:43;12.98;;;7.60;;
19879;SDS011;10102;50.828;4.416;2023-06-14T04:28:14;10.63;;;7.30;;
19879;SDS011;10102;50.828;4.416;2023-06-14T04:30:43;13.90;;;7.97;;
19879;SDS011;10102;50.828;4.416;2023-06-14T04:33:12;13.95;;;7.63;;
19879;SDS011;10102;50.828;4.416;2023-06-14T04:35:38;12.93;;;7.30;;
19879;SDS011;10102;50.828;4.416;2023-06-14T04:38:05;20.50;;;8.25;;
19879;SDS011;10102;50.828;4.416;2023-06-14T04:40:34;14.65;;;7.80;;
19879;SDS011;10102;50.828;4.416;2023-06-14T04:43:07;14.45;;;7.25;;
19879;SDS011;10102;50.828;4.416;2023-06-14T04:45:33;15.15;;;7.72;;
19879;SDS011;10102;50.828;4.416;2023-06-14T04:47:59;9.77;;;7.55;;
19879;SDS011;10102;50.828;4.416;2023-06-14T04:50:25;15.43;;;9.15;;
19879;SDS011;10102;50.828;4.416;2023-06-14T04:52:50;11.20;;;8.05;;
19879;SDS011;10102;50.828;4.416;2023-06-14T04:55:18;12.60;;;7.90;;
19879;SDS011;10102;50.828;4.416;2023-06-14T04:57:45;15.07;;;7.97;;
19879;SDS011;10102;50.828;4.416;2023-06-14T05:00:10;15.82;;;8.05;;
19879;SDS011;10102;50.828;4.416;2023-06-14T05:02:37;17.67;;;8.10;;
19879;SDS011;10102;50.828;4.416;2023-06-14T05:05:03;12.20;;;7.80;;
19879;SDS011;10102;50.828;4.416;2023-06-14T05:07:32;16.00;;;7.60;;
19879;SDS011;10102;50.828;4.416;2023-06-14T05:09:59;9.57;;;7.72;;
19879;SDS011;10102;50.828;4.416;2023-06-14T05:12:24;14.75;;;7.65;;
19879;SDS011;10102;50.828;4.416;2023-06-14T05:14:50;14.80;;;8.02;;
19879;SDS011;10102;50.828;4.416;2023-06-14T05:17:16;15.10;;;7.28;;
19879;SDS011;10102;50.828;4.416;2023-06-14T05:19:42;10.63;;;7.40;;
19879;SDS011;10102;50.828;4.416;2023-06-14T05:22:08;14.43;;;7.78;;
19879;SDS011;10102;50.828;4.416;2023-06-14T05:24:33;12.52;;;7.80;;
19879;SDS011;10102;50.828;4.416;2023-06-14T05:26:59;13.98;;;8.32;;
19879;SDS011;10102;50.828;4.416;2023-06-14T05:29:25;14.82;;;7.93;;
19879;SDS011;10102;50.828;4.416;2023-06-14T05:31:52;14.23;;;7.60;;
19879;SDS011;10102;50.828;4.416;2023-06-14T05:34:18;11.80;;;8.35;;
19879;SDS011;10102;50.828;4.416;2023-06-14T05:36:44;11.60;;;8.55;;
19879;SDS011;10102;50.828;4.416;2023-06-14T05:39:09;12.43;;;8.73;;
19879;SDS011;10102;50.828;4.416;2023-06-14T05:41:35;14.50;;;7.50;;
19879;SDS011;10102;50.828;4.416;2023-06-14T05:44:01;12.13;;;7.57;;
19879;SDS011;10102;50.828;4.416;2023-06-14T05:46:27;17.83;;;7.80;;
19879;SDS011;10102;50.828;4.416;2023-06-14T05:48:53;16.08;;;8.15;;
19879;SDS011;10102;50.828;4.416;2023-06-14T05:51:20;15.05;;;7.82;;
19879;SDS011;10102;50.828;4.416;2023-06-14T05:53:47;14.25;;;7.65;;
19879;SDS011;10102;50.828;4.416;2023-06-14T05:56:14;13.40;;;8.32;;
19879;SDS011;10102;50.828;4.416;2023-06-14T05:58:42;16.02;;;7.82;;
19879;SDS011;10102;50.828;4.416;2023-06-14T06:01:08;10.88;;;7.63;;
19879;SDS011;10102;50.828;4.416;2023-06-14T06:03:34;12.00;;;8.23;;
19879;SDS011;10102;50.828;4.416;2023-06-14T06:06:00;11.88;;;7.72;;
19879;SDS011;10102;50.828;4.416;2023-06-14T06:08:26;12.48;;;7.90;;
19879;SDS011;10102;50.828;4.416;2023-06-14T06:10:52;17.08;;;7.63;;
19879;SDS011;10102;50.828;4.416;2023-06-14T06:13:18;10.07;;;7.05;;
19879;SDS011;10102;50.828;4.416;2023-06-14T06:15:44;12.70;;;7.40;;
19879;SDS011;10102;50.828;4.416;2023-06-14T06:18:10;19.52;;;8.63;;
19879;SDS011;10102;50.828;4.416;2023-06-14T06:20:36;12.68;;;7.30;;
19879;SDS011;10102;50.828;4.416;2023-06-14T06:23:02;16.08;;;7.57;;
19879;SDS011;10102;50.828;4.416;2023-06-14T06:25:28;16.13;;;7.75;;
19879;SDS011;10102;50.828;4.416;2023-06-14T06:27:56;10.18;;;7.97;;
19879;SDS011;10102;50.828;4.416;2023-06-14T06:30:22;8.90;;;7.22;;
19879;SDS011;10102;50.828;4.416;2023-06-14T06:32:48;9.25;;;7.43;;
19879;SDS011;10102;50.828;4.416;2023-06-14T06:35:15;14.48;;;7.90;;
19879;SDS011;10102;50.828;4.416;2023-06-14T06:37:41;14.32;;;7.93;;
19879;SDS011;10102;50.828;4.416;2023-06-14T06:40:07;8.63;;;6.53;;
19879;SDS011;10102;50.828;4.416;2023-06-14T06:42:34;11.93;;;7.13;;
19879;SDS011;10102;50.828;4.416;2023-06-14T06:45:00;9.90;;;7.43;;
19879;SDS011;10102;50.828;4.416;2023-06-14T06:47:25;10.63;;;7.18;;
19879;SDS011;10102;50.828;4.416;2023-06-14T06:49:51;13.43;;;7.78;;
19879;SDS011;10102;50.828;4.416;2023-06-14T06:52:17;15.75;;;7.32;;
19879;SDS011;10102;50.828;4.416;2023-06-14T06:54:42;19.80;;;7.07;;
19879;SDS011;10102;50.828;4.416;2023-06-14T06:57:08;9.85;;;7.13;;
19879;SDS011;10102;50.828;4.416;2023-06-14T06:59:35;11.70;;;7.38;;
19879;SDS011;10102;50.828;4.416;2023-06-14T07:02:01;8.27;;;6.57;;
19879;SDS011;10102;50.828;4.416;2023-06-14T07:04:27;11.65;;;6.88;;
19879;SDS011;10102;50.828;4.416;2023-06-14T07:06:52;11.40;;;6.68;;
19879;SDS011;10102;50.828;4.416;2023-06-14T07:09:18;17.75;;;7.85;;
19879;SDS011;10102;50.828;4.416;2023-06-14T07:11:45;10.68;;;6.15;;
19879;SDS011;10102;50.828;4.416;2023-06-14T07:14:14;9.90;;;6.18;;
19879;SDS011;10102;50.828;4.416;2023-06-14T07:16:40;16.10;;;7.10;;
19879;SDS011;10102;50.828;4.416;2023-06-14T07:19:06;10.95;;;6.82;;
19879;SDS011;10102;50.828;4.416;2023-06-14T07:21:32;13.65;;;6.40;;
19879;SDS011;10102;50.828;4.416;2023-06-14T07:23:57;11.73;;;6.20;;
19879;SDS011;10102;50.828;4.416;2023-06-14T07:26:23;16.25;;;6.75;;
19879;SDS011;10102;50.828;4.416;2023-06-14T07:28:50;13.05;;;6.38;;
19879;SDS011;10102;50.828;4.416;2023-06-14T07:31:16;11.43;;;7.10;;
19879;SDS011;10102;50.828;4.416;2023-06-14T07:33:42;11.65;;;6.20;;
19879;SDS011;10102;50.828;4.416;2023-06-14T07:36:07;10.57;;;6.45;;
19879;SDS011;10102;50.828;4.416;2023-06-14T07:38:33;10.93;;;6.35;;
19879;SDS011;10102;50.828;4.416;2023-06-14T07:40:59;6.88;;;5.90;;
19879;SDS011;10102;50.828;4.416;2023-06-14T07:43:26;10.85;;;6.30;;
19879;SDS011;10102;50.828;4.416;2023-06-14T07:45:51;10.73;;;6.22;;
19879;SDS011;10102;50.828;4.416;2023-06-14T07:48:17;9.52;;;5.88;;
19879;SDS011;10102;50.828;4.416;2023-06-14T07:50:43;14.95;;;6.15;;
19879;SDS011;10102;50.828;4.416;2023-06-14T07:53:09;10.35;;;6.60;;
19879;SDS011;10102;50.828;4.416;2023-06-14T07:55:35;9.07;;;7.00;;
19879;SDS011;10102;50.828;4.416;2023-06-14T07:58:05;10.30;;;6.65;;
19879;SDS011;10102;50.828;4.416;2023-06-14T08:00:31;7.22;;;5.95;;
19879;SDS011;10102;50.828;4.416;2023-06-14T08:02:57;7.63;;;6.00;;
19879;SDS011;10102;50.828;4.416;2023-06-14T08:05:27;14.55;;;6.18;;
19879;SDS011;10102;50.828;4.416;2023-06-14T08:07:54;10.00;;;6.22;;
19879;SDS011;10102;50.828;4.416;2023-06-14T08:10:20;9.70;;;6.22;;
19879;SDS011;10102;50.828;4.416;2023-06-14T08:12:46;13.52;;;5.65;;
19879;SDS011;10102;50.828;4.416;2023-06-14T08:15:13;10.57;;;6.40;;
19879;SDS011;10102;50.828;4.416;2023-06-14T08:17:39;12.23;;;7.22;;
19879;SDS011;10102;50.828;4.416;2023-06-14T08:20:05;9.35;;;6.55;;
19879;SDS011;10102;50.828;4.416;2023-06-14T08:22:31;17.90;;;6.53;;
19879;SDS011;10102;50.828;4.416;2023-06-14T08:25:01;18.98;;;6.65;;
19879;SDS011;10102;50.828;4.416;2023-06-14T08:27:27;17.05;;;7.35;;
19879;SDS011;10102;50.828;4.416;2023-06-14T08:29:52;9.23;;;5.90;;
19879;SDS011;10102;50.828;4.416;2023-06-14T08:32:18;10.02;;;6.50;;
19879;SDS011;10102;50.828;4.416;2023-06-14T08:34:44;16.25;;;7.65;;
19879;SDS011;10102;50.828;4.416;2023-06-14T08:37:10;15.77;;;7.07;;
19879;SDS011;10102;50.828;4.416;2023-06-14T08:39:36;10.63;;;6.68;;
19879;SDS011;10102;50.828;4.416;2023-06-14T08:42:02;16.63;;;7.70;;
19879;SDS011;10102;50.828;4.416;2023-06-14T08:44:29;16.15;;;7.07;;
19879;SDS011;10102;50.828;4.416;2023-06-14T08:46:55;11.57;;;6.95;;
19879;SDS011;10102;50.828;4.416;2023-06-14T08:49:24;12.18;;;7.18;;
19879;SDS011;10102;50.828;4.416;2023-06-14T08:51:52;10.98;;;6.57;;
19879;SDS011;10102;50.828;4.416;2023-06-14T08:54:28;11.55;;;7.20;;
19879;SDS011;10102;50.828;4.416;2023-06-14T08:56:59;12.38;;;7.40;;
19879;SDS011;10102;50.828;4.416;2023-06-14T08:59:27;10.45;;;6.68;;
19879;SDS011;10102;50.828;4.416;2023-06-14T09:01:53;11.10;;;6.75;;
19879;SDS011;10102;50.828;4.416;2023-06-14T09:04:25;13.30;;;6.80;;
19879;SDS011;10102;50.828;4.416;2023-06-14T09:06:54;14.00;;;7.03;;
19879;SDS011;10102;50.828;4.416;2023-06-14T09:09:20;13.02;;;6.28;;
19879;SDS011;10102;50.828;4.416;2023-06-14T09:11:49;17.25;;;6.63;;
19879;SDS011;10102;50.828;4.416;2023-06-14T09:14:15;14.40;;;7.28;;
19879;SDS011;10102;50.828;4.416;2023-06-14T09:16:42;9.82;;;6.22;;
19879;SDS011;10102;50.828;4.416;2023-06-14T09:19:08;16.17;;;6.65;;
19879;SDS011;10102;50.828;4.416;2023-06-14T09:21:38;8.77;;;6.78;;
19879;SDS011;10102;50.828;4.416;2023-06-14T09:24:05;20.70;;;6.60;;
19879;SDS011;10102;50.828;4.416;2023-06-14T09:26:38;7.85;;;6.20;;
19879;SDS011;10102;50.828;4.416;2023-06-14T09:29:05;13.75;;;7.05;;
19879;SDS011;10102;50.828;4.416;2023-06-14T09:31:31;11.60;;;6.80;;
19879;SDS011;10102;50.828;4.416;2023-06-14T09:33:57;15.07;;;7.45;;
19879;SDS011;10102;50.828;4.416;2023-06-14T09:36:26;26.20;;;7.40;;
19879;SDS011;10102;50.828;4.416;2023-06-14T09:44:01;10.40;;;6.32;;
19879;SDS011;10102;50.828;4.416;2023-06-14T09:46:28;10.65;;;5.80;;
19879;SDS011;10102;50.828;4.416;2023-06-14T09:48:57;14.95;;;5.60;;
19879;SDS011;10102;50.828;4.416;2023-06-14T09:51:24;14.60;;;5.75;;
19879;SDS011;10102;50.828;4.416;2023-06-14T09:53:51;15.50;;;6.10;;
19879;SDS011;10102;50.828;4.416;2023-06-14T09:56:19;9.57;;;6.07;;
19879;SDS011;10102;50.828;4.416;2023-06-14T09:58:53;8.90;;;6.55;;
19879;SDS011;10102;50.828;4.416;2023-06-14T10:01:20;13.82;;;6.75;;
19879;SDS011;10102;50.828;4.416;2023-06-14T10:03:49;12.18;;;6.55;;
19879;SDS011;10102;50.828;4.416;2023-06-14T10:06:19;13.20;;;6.68;;
19879;SDS011;10102;50.828;4.416;2023-06-14T10:08:49;16.92;;;6.75;;
19879;SDS011;10102;50.828;4.416;2023-06-14T10:11:20;10.02;;;6.43;;
19879;SDS011;10102;50.828;4.416;2023-06-14T10:13:45;8.93;;;6.10;;
19879;SDS011;10102;50.828;4.416;2023-06-14T10:21:58;13.57;;;6.63;;
19879;SDS011;10102;50.828;4.416;2023-06-14T10:24:33;12.20;;;6.20;;
19879;SDS011;10102;50.828;4.416;2023-06-14T10:27:05;12.32;;;6.72;;
19879;SDS011;10102;50.828;4.416;2023-06-14T10:29:35;11.57;;;5.88;;
19879;SDS011;10102;50.828;4.416;2023-06-14T10:32:27;14.95;;;6.43;;
19879;SDS011;10102;50.828;4.416;2023-06-14T10:34:57;12.85;;;5.60;;
19879;SDS011;10102;50.828;4.416;2023-06-14T10:37:23;12.75;;;5.70;;
19879;SDS011;10102;50.828;4.416;2023-06-14T10:39:51;12.45;;;5.80;;
19879;SDS011;10102;50.828;4.416;2023-06-14T10:42:18;14.10;;;5.22;;
19879;SDS011;10102;50.828;4.416;2023-06-14T10:50:05;12.82;;;6.05;;
19879;SDS011;10102;50.828;4.416;2023-06-14T10:52:38;8.63;;;5.45;;
19879;SDS011;10102;50.828;4.416;2023-06-14T10:57:36;7.35;;;4.93;;
19879;SDS011;10102;50.828;4.416;2023-06-14T11:00:04;9.00;;;4.95;;
19879;SDS011;10102;50.828;4.416;2023-06-14T11:05:25;9.63;;;5.00;;
19879;SDS011;10102;50.828;4.416;2023-06-14T11:10:57;12.60;;;4.75;;
19879;SDS011;10102;50.828;4.416;2023-06-14T11:13:25;8.38;;;4.45;;
19879;SDS011;10102;50.828;4.416;2023-06-14T11:15:51;9.30;;;4.80;;
19879;SDS011;10102;50.828;4.416;2023-06-14T11:18:22;11.77;;;4.65;;
19879;SDS011;10102;50.828;4.416;2023-06-14T11:20:52;17.20;;;5.25;;
19879;SDS011;10102;50.828;4.416;2023-06-14T11:23:18;6.82;;;4.32;;
19879;SDS011;10102;50.828;4.416;2023-06-14T11:25:49;6.60;;;4.90;;
19879;SDS011;10102;50.828;4.416;2023-06-14T11:28:17;5.93;;;4.88;;
19879;SDS011;10102;50.828;4.416;2023-06-14T11:30:45;13.27;;;4.70;;
19879;SDS011;10102;50.828;4.416;2023-06-14T11:33:11;9.40;;;4.50;;
19879;SDS011;10102;50.828;4.416;2023-06-14T11:35:42;8.68;;;5.10;;
19879;SDS011;10102;50.828;4.416;2023-06-14T11:38:09;10.23;;;4.88;;
19879;SDS011;10102;50.828;4.416;2023-06-14T11:40:37;11.73;;;4.82;;
19879;SDS011;10102;50.828;4.416;2023-06-14T11:43:03;9.75;;;4.97;;
19879;SDS011;10102;50.828;4.416;2023-06-14T11:45:29;10.77;;;4.68;;
19879;SDS011;10102;50.828;4.416;2023-06-14T11:47:56;16.35;;;4.80;;
19879;SDS011;10102;50.828;4.416;2023-06-14T11:50:22;6.68;;;4.00;;
19879;SDS011;10102;50.828;4.416;2023-06-14T11:52:59;9.93;;;4.40;;
19879;SDS011;10102;50.828;4.416;2023-06-14T11:55:31;7.15;;;4.78;;
19879;SDS011;10102;50.828;4.416;2023-06-14T11:57:57;10.25;;;4.80;;
19879;SDS011;10102;50.828;4.416;2023-06-14T12:00:26;6.72;;;4.20;;
19879;SDS011;10102;50.828;4.416;2023-06-14T12:02:55;6.03;;;4.35;;
19879;SDS011;10102;50.828;4.416;2023-06-14T12:05:21;14.85;;;4.63;;
19879;SDS011;10102;50.828;4.416;2023-06-14T12:07:48;9.88;;;4.47;;
19879;SDS011;10102;50.828;4.416;2023-06-14T12:10:15;8.27;;;4.18;;
19879;SDS011;10102;50.828;4.416;2023-06-14T12:12:41;15.40;;;4.35;;
19879;SDS011;10102;50.828;4.416;2023-06-14T12:15:10;6.93;;;4.30;;
19879;SDS011;10102;50.828;4.416;2023-06-14T12:17:38;9.70;;;3.97;;
19879;SDS011;10102;50.828;4.416;2023-06-14T12:20:13;8.35;;;4.40;;
19879;SDS011;10102;50.828;4.416;2023-06-14T12:25:26;10.93;;;4.88;;
19879;SDS011;10102;50.828;4.416;2023-06-14T12:27:57;7.95;;;3.85;;
19879;SDS011;10102;50.828;4.416;2023-06-14T12:30:23;14.88;;;4.38;;
19879;SDS011;10102;50.828;4.416;2023-06-14T12:32:49;7.63;;;3.85;;
19879;SDS011;10102;50.828;4.416;2023-06-14T12:35:16;7.75;;;4.38;;
19879;SDS011;10102;50.828;4.416;2023-06-14T12:37:44;6.18;;;3.97;;
19879;SDS011;10102;50.828;4.416;2023-06-14T12:40:11;9.52;;;3.97;;
19879;SDS011;10102;50.828;4.416;2023-06-14T12:42:37;5.15;;;3.67;;
19879;SDS011;10102;50.828;4.416;2023-06-14T12:45:03;8.43;;;3.75;;
19879;SDS011;10102;50.828;4.416;2023-06-14T12:47:29;8.43;;;3.80;;
19879;SDS011;10102;50.828;4.416;2023-06-14T12:49:54;11.70;;;4.45;;
19879;SDS011;10102;50.828;4.416;2023-06-14T12:52:20;6.53;;;3.95;;
19879;SDS011;10102;50.828;4.416;2023-06-14T12:54:46;7.65;;;4.10;;
19879;SDS011;10102;50.828;4.416;2023-06-14T12:57:11;7.65;;;3.90;;
19879;SDS011;10102;50.828;4.416;2023-06-14T12:59:37;5.68;;;3.85;;
19879;SDS011;10102;50.828;4.416;2023-06-14T13:02:12;12.93;;;4.40;;
19879;SDS011;10102;50.828;4.416;2023-06-14T13:04:40;6.30;;;3.85;;
19879;SDS011;10102;50.828;4.416;2023-06-14T13:07:05;8.32;;;3.63;;
19879;SDS011;10102;50.828;4.416;2023-06-14T13:09:31;11.07;;;3.67;;
19879;SDS011;10102;50.828;4.416;2023-06-14T13:11:57;6.90;;;3.63;;
19879;SDS011;10102;50.828;4.416;2023-06-14T13:14:22;12.25;;;3.75;;
19879;SDS011;10102;50.828;4.416;2023-06-14T13:16:48;7.10;;;4.03;;
19879;SDS011;10102;50.828;4.416;2023-06-14T13:19:14;5.88;;;3.65;;
19879;SDS011;10102;50.828;4.416;2023-06-14T13:21:39;4.72;;;3.50;;
19879;SDS011;10102;50.828;4.416;2023-06-14T13:24:05;18.23;;;4.03;;
19879;SDS011;10102;50.828;4.416;2023-06-14T13:26:31;5.75;;;3.08;;
19879;SDS011;10102;50.828;4.416;2023-06-14T13:28:58;10.32;;;3.90;;
19879;SDS011;10102;50.828;4.416;2023-06-14T13:31:24;7.97;;;3.65;;
19879;SDS011;10102;50.828;4.416;2023-06-14T13:33:49;4.80;;;3.45;;
19879;SDS011;10102;50.828;4.416;2023-06-14T13:36:17;7.25;;;3.15;;
19879;SDS011;10102;50.828;4.416;2023-06-14T13:38:43;4.93;;;3.25;;
19879;SDS011;10102;50.828;4.416;2023-06-14T13:41:08;4.55;;;3.20;;
19879;SDS011;10102;50.828;4.416;2023-06-14T13:43:34;6.85;;;3.75;;
19879;SDS011;10102;50.828;4.416;2023-06-14T13:46:00;6.63;;;3.42;;
19879;SDS011;10102;50.828;4.416;2023-06-14T13:48:26;10.05;;;3.58;;
19879;SDS011;10102;50.828;4.416;2023-06-14T13:50:52;8.43;;;3.00;;
19879;SDS011;10102;50.828;4.416;2023-06-14T13:53:17;10.38;;;3.30;;
19879;SDS011;10102;50.828;4.416;2023-06-14T13:55:43;7.28;;;2.75;;
19879;SDS011;10102;50.828;4.416;2023-06-14T13:58:09;11.60;;;3.30;;
19879;SDS011;10102;50.828;4.416;2023-06-14T14:00:35;7.18;;;3.00;;
19879;SDS011;10102;50.828;4.416;2023-06-14T14:03:05;9.02;;;2.88;;
19879;SDS011;10102;50.828;4.416;2023-06-14T14:05:31;10.18;;;2.80;;
19879;SDS011;10102;50.828;4.416;2023-06-14T14:07:57;7.40;;;3.17;;
19879;SDS011;10102;50.828;4.416;2023-06-14T14:10:24;3.70;;;2.40;;
19879;SDS011;10102;50.828;4.416;2023-06-14T14:12:50;7.78;;;2.85;;
19879;SDS011;10102;50.828;4.416;2023-06-14T14:15:16;5.97;;;2.95;;
19879;SDS011;10102;50.828;4.416;2023-06-14T14:17:43;2.75;;;2.42;;
19879;SDS011;10102;50.828;4.416;2023-06-14T14:20:09;6.07;;;2.78;;
19879;SDS011;10102;50.828;4.416;2023-06-14T14:22:37;5.57;;;3.03;;
19879;SDS011;10102;50.828;4.416;2023-06-14T14:25:04;7.70;;;2.63;;
19879;SDS011;10102;50.828;4.416;2023-06-14T14:27:30;7.55;;;2.50;;
19879;SDS011;10102;50.828;4.416;2023-06-14T14:29:55;4.38;;;2.50;;
19879;SDS011;10102;50.828;4.416;2023-06-14T14:32:21;14.82;;;2.55;;
19879;SDS011;10102;50.828;4.416;2023-06-14T14:34:47;9.68;;;2.22;;
19879;SDS011;10102;50.828;4.416;2023-06-14T14:37:12;5.43;;;2.13;;
19879;SDS011;10102;50.828;4.416;2023-06-14T14:39:40;3.60;;;1.95;;
19879;SDS011;10102;50.828;4.416;2023-06-14T14:42:05;5.25;;;2.10;;
19879;SDS011;10102;50.828;4.416;2023-06-14T14:44:32;5.40;;;2.17;;
19879;SDS011;10102;50.828;4.416;2023-06-14T14:46:58;6.10;;;2.13;;
19879;SDS011;10102;50.828;4.416;2023-06-14T14:49:24;5.68;;;2.63;;
19879;SDS011;10102;50.828;4.416;2023-06-14T14:51:49;3.05;;;1.75;;
19879;SDS011;10102;50.828;4.416;2023-06-14T14:54:15;7.85;;;2.50;;
19879;SDS011;10102;50.828;4.416;2023-06-14T14:56:41;4.47;;;2.08;;
19879;SDS011;10102;50.828;4.416;2023-06-14T14:59:06;5.18;;;2.35;;
19879;SDS011;10102;50.828;4.416;2023-06-14T15:01:32;8.90;;;2.40;;
19879;SDS011;10102;50.828;4.416;2023-06-14T15:03:58;5.65;;;2.20;;
19879;SDS011;10102;50.828;4.416;2023-06-14T15:06:23;6.75;;;2.10;;